createdAt,value
2022-11-26T00:01:32.520Z,13.88
2022-11-26T00:04:03.376Z,14.85
2022-11-26T00:06:36.705Z,14.32
2022-11-26T00:09:08.511Z,12.77
2022-11-26T00:11:37.574Z,13.75
2022-11-26T00:14:14.773Z,12.73
2022-11-26T00:19:14.546Z,13.70
2022-11-26T00:21:44.152Z,14.07
2022-11-26T00:24:27.592Z,15.70
2022-11-26T00:27:00.288Z,14.52
2022-11-26T00:29:29.947Z,14.85
2022-11-26T00:32:00.484Z,14.40
2022-11-26T00:34:29.777Z,13.23
2022-11-26T00:36:58.984Z,13.85
2022-11-26T00:39:28.115Z,13.00
2022-11-26T00:41:57.193Z,16.25
2022-11-26T00:44:27.151Z,16.55
2022-11-26T00:46:56.163Z,15.07
2022-11-26T00:49:28.766Z,15.02
2022-11-26T00:51:57.959Z,10.60
2022-11-26T00:54:27.232Z,9.85
2022-11-26T00:56:56.402Z,9.63
2022-11-26T00:59:25.507Z,10.30
2022-11-26T01:01:54.604Z,10.13
2022-11-26T01:04:23.812Z,10.60
2022-11-26T01:06:54.270Z,10.70
2022-11-26T01:09:23.587Z,10.68
2022-11-26T01:11:54.485Z,10.95
2022-11-26T01:14:24.559Z,10.82
2022-11-26T01:16:57.099Z,11.27
2022-11-26T01:19:26.205Z,11.52
2022-11-26T01:21:56.685Z,10.93
2022-11-26T01:24:25.743Z,10.40
2022-11-26T01:26:54.795Z,10.35
2022-11-26T01:29:23.839Z,10.73
2022-11-26T01:31:52.955Z,11.38
2022-11-26T01:34:22.152Z,11.77
2022-11-26T01:36:51.249Z,13.57
2022-11-26T01:39:24.808Z,15.45
2022-11-26T01:42:00.632Z,14.68
2022-11-26T01:44:32.520Z,13.05
2022-11-26T01:47:04.208Z,11.60
2022-11-26T01:49:36.194Z,11.93
2022-11-26T01:52:08.905Z,12.57
2022-11-26T01:54:44.480Z,12.65
2022-11-26T01:57:18.560Z,12.40
2022-11-26T01:59:54.039Z,12.35
2022-11-26T02:02:26.738Z,10.60
2022-11-26T02:05:02.059Z,9.55
2022-11-26T02:07:31.444Z,9.68
2022-11-26T02:10:02.050Z,11.25
2022-11-26T02:12:31.201Z,11.05
2022-11-26T02:15:00.491Z,11.38
2022-11-26T02:17:38.428Z,10.60
2022-11-26T02:20:36.667Z,10.27
2022-11-26T02:23:41.351Z,10.93
2022-11-26T02:27:13.968Z,11.95
2022-11-26T02:30:07.943Z,13.40
2022-11-26T02:32:51.104Z,13.13
2022-11-26T02:35:27.491Z,12.77
2022-11-26T02:38:00.583Z,12.27
2022-11-26T02:40:30.519Z,12.10
2022-11-26T02:42:59.584Z,11.75
2022-11-26T02:45:35.404Z,11.45
2022-11-26T02:48:09.796Z,12.60
2022-11-26T02:50:50.835Z,13.82
2022-11-26T02:53:23.796Z,13.20
2022-11-26T02:56:02.175Z,12.13
2022-11-26T02:58:32.736Z,12.77
2022-11-26T03:01:10.779Z,14.02
2022-11-26T03:03:46.551Z,14.45
2022-11-26T03:06:18.464Z,13.57
2022-11-26T03:08:47.616Z,13.05
2022-11-26T03:11:16.747Z,12.25
2022-11-26T03:13:45.800Z,10.73
2022-11-26T03:16:16.478Z,10.23
2022-11-26T03:18:45.635Z,10.27
2022-11-26T03:21:14.657Z,9.68
2022-11-26T03:23:43.858Z,8.93
2022-11-26T03:26:13.124Z,9.60
2022-11-26T03:28:42.136Z,9.23
2022-11-26T03:31:11.229Z,9.98
2022-11-26T03:33:41.712Z,10.07
2022-11-26T03:36:11.206Z,9.80
2022-11-26T03:38:40.294Z,10.00
2022-11-26T03:41:09.426Z,9.38
2022-11-26T03:43:38.899Z,8.77
2022-11-26T03:46:08.079Z,7.80
2022-11-26T03:48:37.084Z,9.35
2022-11-26T03:51:07.568Z,9.68
2022-11-26T03:53:36.723Z,8.45
2022-11-26T03:56:06.733Z,8.38
2022-11-26T03:58:35.846Z,9.23
2022-11-26T04:01:10.164Z,9.20
2022-11-26T04:03:39.421Z,10.18
2022-11-26T04:06:10.150Z,8.95
2022-11-26T04:08:39.229Z,8.63
2022-11-26T04:11:08.387Z,9.20
2022-11-26T04:13:37.603Z,8.82
2022-11-26T04:16:07.726Z,8.30
2022-11-26T04:18:37.012Z,8.93
2022-11-26T04:21:09.328Z,8.25
2022-11-26T04:23:38.496Z,9.18
2022-11-26T04:26:07.699Z,8.57
2022-11-26T04:28:36.721Z,8.77
2022-11-26T04:31:06.029Z,8.75
2022-11-26T04:33:35.123Z,9.23
2022-11-26T04:36:04.352Z,9.50
2022-11-26T04:38:34.915Z,10.52
2022-11-26T04:41:04.027Z,10.02
2022-11-26T04:43:33.139Z,10.27
2022-11-26T04:46:02.754Z,10.07
2022-11-26T04:48:31.867Z,9.13
2022-11-26T04:51:00.943Z,8.88
2022-11-26T04:53:29.973Z,9.10
2022-11-26T04:56:00.474Z,8.68
2022-11-26T04:58:29.577Z,8.63
2022-11-26T05:00:58.732Z,8.07
2022-11-26T05:03:27.888Z,8.93
2022-11-26T05:05:56.964Z,8.57
2022-11-26T05:08:26.048Z,8.98
2022-11-26T05:10:55.599Z,8.13
2022-11-26T05:13:26.266Z,7.65
2022-11-26T05:15:55.669Z,7.47
2022-11-26T05:18:25.187Z,8.75
2022-11-26T05:20:54.239Z,7.40
2022-11-26T05:23:23.316Z,7.47
2022-11-26T05:25:52.729Z,8.10
2022-11-26T05:28:21.754Z,8.52
2022-11-26T05:30:58.283Z,8.88
2022-11-26T05:33:27.975Z,7.50
2022-11-26T05:35:57.307Z,8.60
2022-11-26T05:38:26.376Z,7.88
2022-11-26T05:40:55.585Z,7.45
2022-11-26T05:43:25.024Z,7.90
2022-11-26T05:45:55.629Z,7.55
2022-11-26T05:48:24.672Z,8.68
2022-11-26T05:50:58.983Z,8.70
2022-11-26T05:53:28.164Z,10.90
2022-11-26T05:55:57.393Z,10.45
2022-11-26T05:58:26.617Z,10.77
2022-11-26T06:00:57.276Z,10.68
2022-11-26T06:03:26.453Z,10.10
2022-11-26T06:05:55.636Z,9.70
2022-11-26T06:08:24.680Z,10.07
2022-11-26T06:10:53.814Z,9.90
2022-11-26T06:13:23.288Z,9.85
2022-11-26T06:15:52.672Z,10.95
2022-11-26T06:18:23.104Z,13.15
2022-11-26T06:20:52.273Z,12.57
2022-11-26T06:23:21.416Z,11.77
2022-11-26T06:25:50.599Z,11.18
2022-11-26T06:28:19.963Z,9.93
2022-11-26T06:30:49.117Z,10.60
2022-11-26T06:33:18.351Z,11.32
2022-11-26T06:35:48.892Z,10.13
2022-11-26T06:38:18.176Z,10.30
2022-11-26T06:40:47.415Z,10.68
2022-11-26T06:43:16.509Z,10.23
2022-11-26T06:45:45.677Z,9.82
2022-11-26T06:48:14.785Z,10.18
2022-11-26T06:50:43.927Z,11.02
2022-11-26T06:53:14.400Z,15.65
2022-11-26T06:55:43.665Z,16.90
2022-11-26T06:58:14.840Z,15.57
2022-11-26T07:00:43.901Z,11.05
2022-11-26T07:03:13.013Z,13.25
2022-11-26T07:05:42.052Z,11.07
2022-11-26T07:08:11.244Z,8.68
2022-11-26T07:10:46.076Z,8.23
2022-11-26T07:13:17.806Z,8.57
2022-11-26T07:15:47.204Z,8.23
2022-11-26T07:18:16.362Z,9.38
2022-11-26T07:20:45.512Z,12.90
2022-11-26T07:23:14.668Z,11.55
2022-11-26T07:25:45.208Z,11.45
2022-11-26T07:28:14.290Z,9.93
2022-11-26T07:30:43.303Z,9.32
2022-11-26T07:33:12.379Z,9.35
2022-11-26T07:35:43.744Z,9.05
2022-11-26T07:38:12.989Z,8.75
2022-11-26T07:40:42.015Z,8.45
2022-11-26T07:43:12.582Z,7.60
2022-11-26T07:45:41.770Z,8.25
2022-11-26T07:48:16.703Z,10.95
2022-11-26T07:50:47.113Z,10.25
2022-11-26T07:53:16.233Z,10.98
2022-11-26T07:55:45.247Z,9.55
2022-11-26T07:58:16.564Z,10.38
2022-11-26T08:00:45.595Z,9.20
2022-11-26T08:03:14.691Z,8.50
2022-11-26T08:05:44.186Z,7.57
2022-11-26T08:08:14.287Z,7.93
2022-11-26T08:10:43.460Z,7.30
2022-11-26T08:13:12.703Z,7.07
2022-11-26T08:15:43.212Z,6.88
2022-11-26T08:18:12.213Z,7.20
2022-11-26T08:20:41.297Z,6.95
2022-11-26T08:23:10.322Z,6.68
2022-11-26T08:25:53.465Z,6.80
2022-11-26T08:28:28.774Z,8.70
2022-11-26T08:31:04.800Z,8.70
2022-11-26T08:33:34.911Z,7.90
2022-11-26T08:36:07.611Z,7.60
2022-11-26T08:38:39.927Z,8.18
2022-11-26T08:41:12.387Z,7.55
2022-11-26T08:46:32.915Z,6.38
2022-11-26T08:49:02.135Z,7.45
2022-11-26T08:51:31.289Z,6.97
2022-11-26T08:54:00.417Z,6.38
2022-11-26T08:56:29.592Z,6.65
2022-11-26T08:58:58.986Z,6.97
2022-11-26T09:01:30.348Z,5.97
2022-11-26T09:04:04.059Z,6.57
2022-11-26T09:06:36.783Z,6.80
2022-11-26T09:09:14.031Z,6.65
2022-11-26T09:11:48.333Z,5.50
2022-11-26T09:14:20.343Z,5.55
2022-11-26T09:16:49.584Z,5.72
2022-11-26T09:19:20.544Z,5.13
2022-11-26T09:21:50.090Z,5.47
2022-11-26T09:24:19.451Z,5.70
2022-11-26T09:26:49.812Z,5.53
2022-11-26T09:29:22.207Z,6.47
2022-11-26T09:34:42.502Z,5.40
2022-11-26T09:37:11.736Z,5.05
2022-11-26T09:39:40.791Z,4.95
2022-11-26T09:42:20.395Z,5.63
2022-11-26T09:45:05.541Z,5.57
2022-11-26T09:47:40.690Z,4.40
2022-11-26T09:50:26.891Z,5.63
2022-11-26T09:53:01.474Z,5.38
2022-11-26T09:55:34.720Z,5.82
2022-11-26T09:58:13.414Z,5.00
2022-11-26T10:00:45.456Z,5.00
2022-11-26T10:03:17.502Z,5.10
2022-11-26T10:05:57.781Z,5.32
2022-11-26T10:09:12.852Z,5.80
2022-11-26T10:11:53.699Z,5.45
2022-11-26T10:14:50.049Z,5.60
2022-11-26T10:17:30.801Z,5.30
2022-11-26T10:20:55.553Z,4.97
2022-11-26T10:23:32.752Z,5.18
2022-11-26T10:26:08.804Z,4.40
2022-11-26T10:28:45.758Z,4.28
2022-11-26T10:31:22.598Z,3.88
2022-11-26T10:33:58.197Z,3.53
2022-11-26T10:36:37.716Z,3.20
2022-11-26T10:39:08.404Z,2.78
2022-11-26T10:41:39.040Z,3.55
2022-11-26T10:44:37.058Z,3.03
2022-11-26T10:47:28.756Z,3.20
2022-11-26T10:50:46.201Z,3.10
2022-11-26T10:53:08.062Z,2.80
2022-11-26T10:55:40.680Z,3.13
2022-11-26T10:58:18.247Z,2.58
2022-11-26T11:00:58.369Z,2.83
2022-11-26T11:04:06.067Z,3.03
2022-11-26T11:06:41.725Z,2.38
2022-11-26T11:09:35.062Z,3.40
2022-11-26T11:12:26.615Z,2.38
2022-11-26T11:14:55.703Z,3.35
2022-11-26T11:17:37.848Z,3.17
2022-11-26T11:20:33.097Z,7.57
2022-11-26T11:23:07.097Z,7.57
2022-11-26T11:25:41.344Z,8.95
2022-11-26T11:28:19.639Z,6.80
2022-11-26T11:30:58.628Z,7.45
2022-11-26T11:33:29.967Z,7.68
2022-11-26T11:36:18.052Z,7.68
2022-11-26T11:41:29.419Z,7.20
2022-11-26T11:44:07.485Z,7.97
2022-11-26T11:46:57.552Z,8.73
2022-11-26T11:49:43.376Z,7.65
2022-11-26T11:52:25.694Z,8.13
2022-11-26T11:55:04.378Z,9.13
2022-11-26T11:58:05.430Z,9.82
2022-11-26T12:00:45.165Z,9.85
2022-11-26T12:03:47.667Z,9.73
2022-11-26T12:06:29.968Z,9.50
2022-11-26T12:09:12.118Z,8.80
2022-11-26T12:11:55.625Z,7.45
2022-11-26T12:14:31.178Z,7.82
2022-11-26T12:17:06.842Z,9.02
2022-11-26T12:19:42.497Z,7.78
2022-11-26T12:22:18.864Z,7.95
2022-11-26T12:24:52.940Z,7.68
2022-11-26T12:27:33.259Z,9.63
2022-11-26T12:30:08.739Z,10.88
2022-11-26T12:32:44.476Z,11.38
2022-11-26T12:35:20.828Z,7.05
2022-11-26T12:38:03.273Z,7.22
2022-11-26T12:40:39.374Z,6.82
2022-11-26T12:43:18.296Z,6.50
2022-11-26T12:45:56.418Z,7.50
2022-11-26T12:48:42.783Z,6.78
2022-11-26T12:51:25.534Z,6.65
2022-11-26T12:54:11.070Z,6.65
2022-11-26T12:56:50.949Z,7.85
2022-11-26T12:59:27.868Z,7.20
2022-11-26T13:01:59.745Z,7.35
2022-11-26T13:04:37.658Z,6.40
2022-11-26T13:07:21.820Z,6.65
2022-11-26T13:10:14.288Z,6.10
2022-11-26T13:12:53.193Z,6.65
2022-11-26T13:15:29.363Z,7.03
2022-11-26T13:18:01.842Z,6.28
2022-11-26T13:20:49.551Z,5.20
2022-11-26T13:23:50.824Z,6.15
2022-11-26T13:26:37.555Z,7.00
2022-11-26T13:29:50.595Z,6.85
2022-11-26T13:32:55.907Z,6.05
2022-11-26T13:35:49.432Z,6.30
2022-11-26T13:38:25.989Z,5.63
2022-11-26T13:41:22.643Z,6.10
2022-11-26T13:44:33.498Z,5.53
2022-11-26T13:47:07.671Z,5.53
2022-11-26T13:49:42.681Z,5.78
2022-11-26T13:52:21.403Z,6.07
2022-11-26T13:54:56.819Z,6.65
2022-11-26T13:57:32.731Z,5.88
2022-11-26T14:00:02.028Z,5.78
2022-11-26T14:02:47.414Z,5.63
2022-11-26T14:05:18.529Z,5.35
2022-11-26T14:07:49.135Z,4.90
2022-11-26T14:10:43.692Z,4.82
2022-11-26T14:13:16.052Z,4.90
2022-11-26T14:16:00.987Z,5.10
2022-11-26T14:19:03.320Z,4.75
2022-11-26T14:21:32.458Z,3.88
2022-11-26T14:24:03.380Z,3.92
2022-11-26T14:26:37.470Z,4.13
2022-11-26T14:29:19.184Z,4.25
2022-11-26T14:31:53.213Z,5.55
2022-11-26T14:34:30.311Z,7.15
2022-11-26T14:37:01.702Z,7.47
2022-11-26T14:39:32.861Z,7.65
2022-11-26T14:42:05.918Z,8.68
2022-11-26T14:44:35.563Z,8.50
2022-11-26T14:47:15.680Z,8.57
2022-11-26T14:49:50.424Z,8.30
2022-11-26T14:52:24.915Z,9.32
2022-11-26T14:55:00.051Z,8.77
2022-11-26T14:57:40.157Z,7.70
2022-11-26T15:00:24.184Z,7.47
2022-11-26T15:02:54.124Z,7.00
2022-11-26T15:05:26.016Z,5.82
2022-11-26T15:08:00.866Z,4.13
2022-11-26T15:10:34.954Z,5.30
2022-11-26T15:13:12.116Z,5.22
2022-11-26T15:15:53.422Z,5.43
2022-11-26T15:18:29.929Z,6.00
2022-11-26T15:21:02.202Z,6.38
2022-11-26T15:23:33.892Z,6.22
2022-11-26T15:26:05.291Z,7.75
2022-11-26T15:28:41.069Z,13.45
2022-11-26T15:31:10.572Z,10.55
2022-11-26T15:33:41.063Z,10.07
2022-11-26T15:36:17.177Z,9.13
2022-11-26T15:39:04.133Z,9.18
2022-11-26T15:41:42.389Z,7.70
2022-11-26T15:44:23.475Z,7.82
2022-11-26T15:46:55.623Z,7.30
2022-11-26T15:49:32.389Z,7.97
2022-11-26T15:52:05.404Z,6.75
2022-11-26T15:55:04.724Z,7.75
2022-11-26T15:57:32.840Z,9.05
2022-11-26T16:00:07.307Z,7.85
2022-11-26T16:02:39.761Z,8.68
2022-11-26T16:05:25.471Z,9.40
2022-11-26T16:07:59.926Z,16.17
2022-11-26T16:10:35.396Z,10.63
2022-11-26T16:13:20.965Z,9.15
2022-11-26T16:16:01.383Z,9.70
2022-11-26T16:18:38.536Z,9.45
2022-11-26T16:21:17.020Z,9.68
2022-11-26T16:23:55.513Z,13.40
2022-11-26T16:26:24.989Z,9.75
2022-11-26T16:28:55.786Z,8.70
2022-11-26T16:31:25.145Z,11.52
2022-11-26T16:33:54.366Z,14.00
2022-11-26T16:36:27.965Z,16.27
2022-11-26T16:38:57.132Z,19.23
2022-11-26T16:41:26.281Z,18.20
2022-11-26T16:43:58.618Z,16.55
2022-11-26T16:46:28.778Z,14.95
2022-11-26T16:48:58.136Z,16.75
2022-11-26T16:51:27.276Z,20.98
2022-11-26T16:53:56.460Z,13.65
2022-11-26T16:56:29.594Z,9.25
2022-11-26T16:59:02.648Z,7.30
2022-11-26T17:01:31.818Z,8.70
2022-11-26T17:04:00.895Z,9.40
2022-11-26T17:06:34.753Z,9.50
2022-11-26T17:09:04.022Z,7.60
2022-11-26T17:11:33.320Z,8.38
2022-11-26T17:14:03.868Z,10.02
2022-11-26T17:16:33.004Z,10.93
2022-11-26T17:19:02.280Z,9.23
2022-11-26T17:21:31.652Z,10.15
2022-11-26T17:24:00.780Z,10.10
2022-11-26T17:26:29.941Z,10.68
2022-11-26T17:28:59.112Z,10.38
2022-11-26T17:31:30.099Z,8.75
2022-11-26T17:33:59.437Z,8.90
2022-11-26T17:36:33.828Z,6.80
2022-11-26T17:39:05.677Z,6.60
2022-11-26T17:41:34.855Z,6.30
2022-11-26T17:44:04.075Z,7.65
2022-11-26T17:46:43.015Z,6.95
2022-11-26T17:49:24.724Z,8.05
2022-11-26T17:51:53.944Z,8.27
2022-11-26T17:54:23.129Z,8.10
2022-11-26T17:56:52.568Z,7.85
2022-11-26T17:59:23.905Z,6.15
2022-11-26T18:01:55.371Z,6.35
2022-11-26T18:04:24.620Z,6.47
2022-11-26T18:07:03.174Z,6.80
2022-11-26T18:09:33.003Z,6.80
2022-11-26T18:12:02.421Z,6.60
2022-11-26T18:14:35.591Z,6.88
2022-11-26T18:17:06.591Z,7.90
2022-11-26T18:19:39.411Z,8.18
2022-11-26T18:22:13.908Z,7.15
2022-11-26T18:24:43.458Z,7.05
2022-11-26T18:27:12.564Z,7.57
2022-11-26T18:29:41.937Z,7.95
2022-11-26T18:32:12.843Z,8.55
2022-11-26T18:34:42.380Z,8.25
2022-11-26T18:37:13.275Z,9.43
2022-11-26T18:39:43.321Z,8.18
2022-11-26T18:45:02.616Z,8.77
2022-11-26T18:47:33.297Z,9.40
2022-11-26T18:50:02.393Z,9.38
2022-11-26T18:52:33.311Z,8.80
2022-11-26T18:55:07.431Z,9.50
2022-11-26T18:57:36.842Z,10.70
2022-11-26T19:00:09.065Z,8.65
2022-11-26T19:02:39.714Z,8.75
2022-11-26T19:05:09.856Z,10.18
2022-11-26T19:07:39.239Z,9.52
2022-11-26T19:10:09.994Z,9.73
2022-11-26T19:12:39.177Z,9.93
2022-11-26T19:15:09.511Z,9.32
2022-11-26T19:17:40.007Z,10.05
2022-11-26T19:20:10.077Z,10.07
2022-11-26T19:22:39.227Z,9.95
2022-11-26T19:25:09.868Z,9.75
2022-11-26T19:27:39.057Z,9.82
2022-11-26T19:30:10.927Z,9.77
2022-11-26T19:32:41.491Z,11.65
2022-11-26T19:35:11.209Z,10.52
2022-11-26T19:37:40.285Z,10.52
2022-11-26T19:40:10.947Z,9.50
2022-11-26T19:42:42.020Z,10.82
2022-11-26T19:45:12.995Z,9.30
2022-11-26T19:47:43.558Z,9.75
2022-11-26T19:50:13.146Z,11.25
2022-11-26T19:52:47.690Z,11.18
2022-11-26T19:55:20.398Z,11.20
2022-11-26T19:57:49.500Z,14.07
2022-11-26T20:00:19.261Z,24.00
2022-11-26T20:02:49.915Z,33.70
2022-11-26T20:05:19.187Z,24.65
2022-11-26T20:07:48.590Z,34.00
2022-11-26T20:10:18.154Z,28.10
2022-11-26T20:12:47.390Z,22.92
2022-11-26T20:15:16.629Z,15.55
2022-11-26T20:17:45.726Z,14.35
2022-11-26T20:20:16.708Z,13.40
2022-11-26T20:22:45.822Z,14.93
2022-11-26T20:25:15.716Z,17.35
2022-11-26T20:27:44.869Z,17.48
2022-11-26T20:30:15.019Z,15.43
2022-11-26T20:32:44.113Z,14.50
2022-11-26T20:35:13.199Z,8.52
2022-11-26T20:37:43.928Z,7.72
2022-11-26T20:40:13.406Z,8.50
2022-11-26T20:42:45.579Z,11.95
2022-11-26T20:45:15.063Z,12.25
2022-11-26T20:47:44.252Z,12.80
2022-11-26T20:50:14.069Z,12.80
2022-11-26T20:52:44.581Z,12.80
2022-11-26T20:55:17.216Z,15.05
2022-11-26T20:57:46.328Z,14.45
2022-11-26T21:00:18.232Z,14.07
2022-11-26T21:02:48.740Z,13.52
2022-11-26T21:05:18.506Z,11.63
2022-11-26T21:07:50.986Z,5.60
2022-11-26T21:10:25.124Z,12.38
2022-11-26T21:12:54.245Z,15.15
2022-11-26T21:15:24.011Z,13.27
2022-11-26T21:17:53.359Z,12.95
2022-11-26T21:20:22.411Z,13.55
2022-11-26T21:22:52.931Z,14.27
2022-11-26T21:25:24.979Z,14.68
2022-11-26T21:27:55.841Z,12.88
2022-11-26T21:30:25.121Z,14.23
2022-11-26T21:32:54.311Z,13.45
2022-11-26T21:35:23.479Z,13.82
2022-11-26T21:37:54.179Z,13.70
2022-11-26T21:40:26.759Z,12.60
2022-11-26T21:42:55.830Z,12.75
2022-11-26T21:45:25.260Z,11.52
2022-11-26T21:47:54.417Z,11.50
2022-11-26T21:50:25.211Z,12.50
2022-11-26T21:52:55.711Z,12.93
2022-11-26T21:55:24.803Z,13.55
2022-11-26T21:57:53.948Z,11.63
2022-11-26T22:00:23.454Z,11.50
2022-11-26T22:02:52.665Z,10.95
2022-11-26T22:05:21.737Z,10.57
2022-11-26T22:07:50.920Z,10.18
2022-11-26T22:10:21.825Z,9.68
2022-11-26T22:12:50.942Z,8.43
2022-11-26T22:15:20.116Z,8.13
2022-11-26T22:17:49.183Z,8.90
2022-11-26T22:20:18.524Z,8.15
2022-11-26T22:22:47.603Z,9.57
2022-11-26T22:25:16.866Z,9.25
2022-11-26T22:27:47.314Z,10.23
2022-11-26T22:30:17.157Z,11.07
2022-11-26T22:32:46.329Z,9.77
2022-11-26T22:35:15.631Z,10.80
2022-11-26T22:37:44.664Z,10.77
2022-11-26T22:40:14.292Z,12.60
2022-11-26T22:42:43.403Z,11.82
2022-11-26T22:45:14.266Z,12.38
2022-11-26T22:47:43.373Z,11.23
2022-11-26T22:50:12.940Z,10.88
2022-11-26T22:52:43.312Z,10.02
2022-11-26T22:55:12.448Z,9.98
2022-11-26T22:57:42.109Z,7.90
2022-11-26T23:00:36.776Z,6.72
2022-11-26T23:03:06.141Z,6.03
2022-11-26T23:05:37.964Z,6.43
2022-11-26T23:08:07.011Z,6.88
2022-11-26T23:10:36.359Z,6.40
2022-11-26T23:13:06.893Z,7.72
2022-11-26T23:15:44.739Z,11.23
2022-11-26T23:18:16.391Z,9.63
2022-11-26T23:20:45.503Z,9.15
2022-11-26T23:23:14.994Z,8.65
2022-11-26T23:25:44.067Z,9.52
2022-11-26T23:28:13.130Z,7.75
2022-11-26T23:30:43.609Z,7.00
2022-11-26T23:33:12.699Z,8.88
2022-11-26T23:35:44.423Z,8.23
2022-11-26T23:38:13.512Z,8.85
2022-11-26T23:40:42.644Z,9.68
2022-11-26T23:43:11.710Z,9.10
2022-11-26T23:45:40.764Z,9.15
2022-11-26T23:48:11.190Z,8.45
2022-11-26T23:50:41.006Z,8.13
2022-11-26T23:53:10.444Z,7.00
2022-11-26T23:55:39.904Z,7.47
2022-11-26T23:58:09.003Z,7.70
